sensor_id;sensor_type;location;lat;lon;timestamp;P1;durP1;ratioP1;P2;durP2;ratioP2
3993;SDS011;2011;48.238;13.948;2023-04-03T00:00:51;4.87;;;3.47;;
3993;SDS011;2011;48.238;13.948;2023-04-03T00:03:18;5.53;;;3.37;;
3993;SDS011;2011;48.238;13.948;2023-04-03T00:05:47;4.70;;;3.17;;
3993;SDS011;2011;48.238;13.948;2023-04-03T00:08:14;4.30;;;3.50;;
3993;SDS011;2011;48.238;13.948;2023-04-03T00:10:41;5.73;;;3.03;;
3993;SDS011;2011;48.238;13.948;2023-04-03T00:13:08;4.90;;;3.30;;
3993;SDS011;2011;48.238;13.948;2023-04-03T00:15:35;4.77;;;2.90;;
3993;SDS011;2011;48.238;13.948;2023-04-03T00:18:03;6.10;;;3.27;;
3993;SDS011;2011;48.238;13.948;2023-04-03T00:20:30;5.07;;;3.43;;
3993;SDS011;2011;48.238;13.948;2023-04-03T00:23:00;4.93;;;3.60;;
3993;SDS011;2011;48.238;13.948;2023-04-03T00:25:27;7.03;;;3.57;;
3993;SDS011;2011;48.238;13.948;2023-04-03T00:27:54;5.40;;;3.57;;
3993;SDS011;2011;48.238;13.948;2023-04-03T00:30:21;5.57;;;3.47;;
3993;SDS011;2011;48.238;13.948;2023-04-03T00:32:48;5.17;;;3.50;;
3993;SDS011;2011;48.238;13.948;2023-04-03T00:35:16;5.87;;;4.00;;
3993;SDS011;2011;48.238;13.948;2023-04-03T00:37:44;4.60;;;3.40;;
3993;SDS011;2011;48.238;13.948;2023-04-03T00:40:13;6.60;;;3.80;;
3993;SDS011;2011;48.238;13.948;2023-04-03T00:42:42;4.77;;;2.93;;
3993;SDS011;2011;48.238;13.948;2023-04-03T00:45:22;5.27;;;3.20;;
3993;SDS011;2011;48.238;13.948;2023-04-03T00:47:52;3.93;;;2.93;;
3993;SDS011;2011;48.238;13.948;2023-04-03T00:50:19;4.83;;;3.50;;
3993;SDS011;2011;48.238;13.948;2023-04-03T00:52:46;5.70;;;3.50;;
3993;SDS011;2011;48.238;13.948;2023-04-03T00:55:15;4.93;;;3.20;;
3993;SDS011;2011;48.238;13.948;2023-04-03T00:57:42;6.40;;;3.43;;
3993;SDS011;2011;48.238;13.948;2023-04-03T01:00:12;5.80;;;3.53;;
3993;SDS011;2011;48.238;13.948;2023-04-03T01:02:40;4.70;;;3.10;;
3993;SDS011;2011;48.238;13.948;2023-04-03T01:05:08;3.80;;;2.90;;
3993;SDS011;2011;48.238;13.948;2023-04-03T01:07:35;4.83;;;3.13;;
3993;SDS011;2011;48.238;13.948;2023-04-03T01:10:04;5.77;;;3.30;;
3993;SDS011;2011;48.238;13.948;2023-04-03T01:12:35;6.20;;;3.67;;
3993;SDS011;2011;48.238;13.948;2023-04-03T01:15:05;6.33;;;4.03;;
3993;SDS011;2011;48.238;13.948;2023-04-03T01:17:34;4.57;;;3.70;;
3993;SDS011;2011;48.238;13.948;2023-04-03T01:23:09;4.43;;;3.20;;
3993;SDS011;2011;48.238;13.948;2023-04-03T01:25:52;5.23;;;3.63;;
3993;SDS011;2011;48.238;13.948;2023-04-03T01:28:22;5.40;;;3.80;;
3993;SDS011;2011;48.238;13.948;2023-04-03T01:30:51;5.53;;;4.00;;
3993;SDS011;2011;48.238;13.948;2023-04-03T01:33:25;5.60;;;3.50;;
3993;SDS011;2011;48.238;13.948;2023-04-03T01:35:52;7.57;;;4.60;;
3993;SDS011;2011;48.238;13.948;2023-04-03T01:38:18;4.60;;;3.63;;
3993;SDS011;2011;48.238;13.948;2023-04-03T01:40:45;5.53;;;3.90;;
3993;SDS011;2011;48.238;13.948;2023-04-03T01:43:12;5.47;;;3.90;;
3993;SDS011;2011;48.238;13.948;2023-04-03T01:45:39;5.77;;;4.10;;
3993;SDS011;2011;48.238;13.948;2023-04-03T01:48:06;5.00;;;3.80;;
3993;SDS011;2011;48.238;13.948;2023-04-03T01:50:35;4.73;;;3.17;;
3993;SDS011;2011;48.238;13.948;2023-04-03T01:53:02;6.00;;;3.17;;
3993;SDS011;2011;48.238;13.948;2023-04-03T01:55:29;4.10;;;3.13;;
3993;SDS011;2011;48.238;13.948;2023-04-03T01:57:55;4.30;;;2.90;;
3993;SDS011;2011;48.238;13.948;2023-04-03T02:00:22;6.63;;;3.50;;
3993;SDS011;2011;48.238;13.948;2023-04-03T02:02:50;8.83;;;3.03;;
3993;SDS011;2011;48.238;13.948;2023-04-03T02:05:16;6.13;;;2.90;;
3993;SDS011;2011;48.238;13.948;2023-04-03T02:07:45;6.90;;;3.57;;
3993;SDS011;2011;48.238;13.948;2023-04-03T02:10:12;5.67;;;3.53;;
3993;SDS011;2011;48.238;13.948;2023-04-03T02:12:39;4.33;;;3.27;;
3993;SDS011;2011;48.238;13.948;2023-04-03T02:15:06;5.60;;;3.53;;
3993;SDS011;2011;48.238;13.948;2023-04-03T02:17:34;6.63;;;3.23;;
3993;SDS011;2011;48.238;13.948;2023-04-03T02:20:02;4.20;;;2.83;;
3993;SDS011;2011;48.238;13.948;2023-04-03T02:22:29;5.63;;;4.20;;
3993;SDS011;2011;48.238;13.948;2023-04-03T02:24:58;4.60;;;3.20;;
3993;SDS011;2011;48.238;13.948;2023-04-03T02:27:25;4.80;;;3.23;;
3993;SDS011;2011;48.238;13.948;2023-04-03T02:29:52;3.87;;;3.20;;
3993;SDS011;2011;48.238;13.948;2023-04-03T02:32:19;4.53;;;2.90;;
3993;SDS011;2011;48.238;13.948;2023-04-03T02:34:46;4.67;;;2.80;;
3993;SDS011;2011;48.238;13.948;2023-04-03T02:37:13;4.33;;;3.23;;
3993;SDS011;2011;48.238;13.948;2023-04-03T02:39:40;5.57;;;3.43;;
3993;SDS011;2011;48.238;13.948;2023-04-03T02:42:08;4.80;;;3.23;;
3993;SDS011;2011;48.238;13.948;2023-04-03T02:44:35;4.10;;;3.00;;
3993;SDS011;2011;48.238;13.948;2023-04-03T02:47:02;5.13;;;3.50;;
3993;SDS011;2011;48.238;13.948;2023-04-03T02:49:29;4.60;;;3.17;;
3993;SDS011;2011;48.238;13.948;2023-04-03T02:51:56;4.70;;;3.53;;
3993;SDS011;2011;48.238;13.948;2023-04-03T02:54:23;4.13;;;3.00;;
3993;SDS011;2011;48.238;13.948;2023-04-03T02:56:53;5.40;;;3.87;;
3993;SDS011;2011;48.238;13.948;2023-04-03T02:59:22;3.73;;;2.77;;
3993;SDS011;2011;48.238;13.948;2023-04-03T03:01:48;5.13;;;3.30;;
3993;SDS011;2011;48.238;13.948;2023-04-03T03:04:15;4.07;;;2.90;;
3993;SDS011;2011;48.238;13.948;2023-04-03T03:06:42;3.40;;;2.67;;
3993;SDS011;2011;48.238;13.948;2023-04-03T03:09:09;5.03;;;3.37;;
3993;SDS011;2011;48.238;13.948;2023-04-03T03:11:36;4.43;;;2.80;;
3993;SDS011;2011;48.238;13.948;2023-04-03T03:14:03;6.10;;;3.50;;
3993;SDS011;2011;48.238;13.948;2023-04-03T03:16:31;7.93;;;3.40;;
3993;SDS011;2011;48.238;13.948;2023-04-03T03:18:58;8.10;;;3.47;;
3993;SDS011;2011;48.238;13.948;2023-04-03T03:21:25;4.03;;;3.20;;
3993;SDS011;2011;48.238;13.948;2023-04-03T03:23:52;5.17;;;3.37;;
3993;SDS011;2011;48.238;13.948;2023-04-03T03:26:19;4.87;;;2.73;;
3993;SDS011;2011;48.238;13.948;2023-04-03T03:28:46;4.80;;;2.97;;
3993;SDS011;2011;48.238;13.948;2023-04-03T03:31:13;5.43;;;3.10;;
3993;SDS011;2011;48.238;13.948;2023-04-03T03:33:41;4.57;;;3.43;;
3993;SDS011;2011;48.238;13.948;2023-04-03T03:36:08;4.90;;;2.87;;
3993;SDS011;2011;48.238;13.948;2023-04-03T03:38:35;3.93;;;2.90;;
3993;SDS011;2011;48.238;13.948;2023-04-03T03:41:02;4.00;;;2.90;;
3993;SDS011;2011;48.238;13.948;2023-04-03T03:43:29;9.60;;;3.90;;
3993;SDS011;2011;48.238;13.948;2023-04-03T03:45:56;5.40;;;3.17;;
3993;SDS011;2011;48.238;13.948;2023-04-03T03:48:23;4.23;;;3.10;;
3993;SDS011;2011;48.238;13.948;2023-04-03T03:50:52;4.00;;;2.90;;
3993;SDS011;2011;48.238;13.948;2023-04-03T03:53:18;4.80;;;3.10;;
3993;SDS011;2011;48.238;13.948;2023-04-03T03:55:45;6.80;;;3.40;;
3993;SDS011;2011;48.238;13.948;2023-04-03T03:58:12;5.00;;;3.13;;
3993;SDS011;2011;48.238;13.948;2023-04-03T04:00:39;4.47;;;2.93;;
3993;SDS011;2011;48.238;13.948;2023-04-03T04:03:06;4.67;;;3.20;;
3993;SDS011;2011;48.238;13.948;2023-04-03T04:05:33;6.50;;;3.37;;
3993;SDS011;2011;48.238;13.948;2023-04-03T04:08:01;4.83;;;3.30;;
3993;SDS011;2011;48.238;13.948;2023-04-03T04:10:28;5.33;;;3.10;;
3993;SDS011;2011;48.238;13.948;2023-04-03T04:12:55;4.80;;;3.40;;
3993;SDS011;2011;48.238;13.948;2023-04-03T04:15:22;4.27;;;3.20;;
3993;SDS011;2011;48.238;13.948;2023-04-03T04:17:50;6.57;;;3.80;;
3993;SDS011;2011;48.238;13.948;2023-04-03T04:20:18;4.90;;;3.50;;
3993;SDS011;2011;48.238;13.948;2023-04-03T04:22:45;3.73;;;2.87;;
3993;SDS011;2011;48.238;13.948;2023-04-03T04:25:13;7.67;;;4.30;;
3993;SDS011;2011;48.238;13.948;2023-04-03T04:27:40;5.03;;;3.50;;
3993;SDS011;2011;48.238;13.948;2023-04-03T04:30:08;5.83;;;3.63;;
3993;SDS011;2011;48.238;13.948;2023-04-03T04:32:36;6.63;;;3.60;;
3993;SDS011;2011;48.238;13.948;2023-04-03T04:35:03;7.90;;;3.97;;
3993;SDS011;2011;48.238;13.948;2023-04-03T04:37:30;7.60;;;4.13;;
3993;SDS011;2011;48.238;13.948;2023-04-03T04:39:57;5.57;;;3.93;;
3993;SDS011;2011;48.238;13.948;2023-04-03T04:42:26;6.73;;;4.27;;
3993;SDS011;2011;48.238;13.948;2023-04-03T04:44:52;6.40;;;3.77;;
3993;SDS011;2011;48.238;13.948;2023-04-03T04:47:20;6.60;;;4.23;;
3993;SDS011;2011;48.238;13.948;2023-04-03T04:49:46;6.20;;;3.50;;
3993;SDS011;2011;48.238;13.948;2023-04-03T04:52:13;7.87;;;4.53;;
3993;SDS011;2011;48.238;13.948;2023-04-03T04:54:40;6.97;;;4.73;;
3993;SDS011;2011;48.238;13.948;2023-04-03T04:57:07;5.87;;;3.60;;
3993;SDS011;2011;48.238;13.948;2023-04-03T04:59:37;5.60;;;3.47;;
3993;SDS011;2011;48.238;13.948;2023-04-03T05:02:04;4.60;;;3.40;;
3993;SDS011;2011;48.238;13.948;2023-04-03T05:04:30;9.60;;;4.30;;
3993;SDS011;2011;48.238;13.948;2023-04-03T05:06:58;6.87;;;3.90;;
3993;SDS011;2011;48.238;13.948;2023-04-03T05:09:25;9.40;;;4.20;;
3993;SDS011;2011;48.238;13.948;2023-04-03T05:11:52;6.77;;;4.17;;
3993;SDS011;2011;48.238;13.948;2023-04-03T05:14:19;6.47;;;3.87;;
3993;SDS011;2011;48.238;13.948;2023-04-03T05:16:47;10.50;;;4.20;;
3993;SDS011;2011;48.238;13.948;2023-04-03T05:19:18;5.70;;;3.60;;
3993;SDS011;2011;48.238;13.948;2023-04-03T05:21:45;7.53;;;4.20;;
3993;SDS011;2011;48.238;13.948;2023-04-03T05:24:12;5.80;;;3.30;;
3993;SDS011;2011;48.238;13.948;2023-04-03T05:26:39;5.20;;;3.60;;
3993;SDS011;2011;48.238;13.948;2023-04-03T05:29:06;6.20;;;3.80;;
3993;SDS011;2011;48.238;13.948;2023-04-03T05:31:33;5.93;;;3.77;;
3993;SDS011;2011;48.238;13.948;2023-04-03T05:34:02;5.60;;;3.70;;
3993;SDS011;2011;48.238;13.948;2023-04-03T05:36:29;10.73;;;4.27;;
3993;SDS011;2011;48.238;13.948;2023-04-03T05:38:56;4.93;;;3.27;;
3993;SDS011;2011;48.238;13.948;2023-04-03T05:41:23;7.37;;;3.60;;
3993;SDS011;2011;48.238;13.948;2023-04-03T05:43:50;7.20;;;3.70;;
3993;SDS011;2011;48.238;13.948;2023-04-03T05:46:17;5.53;;;3.47;;
3993;SDS011;2011;48.238;13.948;2023-04-03T05:48:45;6.17;;;3.13;;
3993;SDS011;2011;48.238;13.948;2023-04-03T05:51:15;3.63;;;3.10;;
3993;SDS011;2011;48.238;13.948;2023-04-03T05:53:44;7.10;;;3.20;;
3993;SDS011;2011;48.238;13.948;2023-04-03T05:56:11;6.93;;;3.40;;
3993;SDS011;2011;48.238;13.948;2023-04-03T05:58:38;6.97;;;3.67;;
3993;SDS011;2011;48.238;13.948;2023-04-03T06:01:05;6.20;;;3.97;;
3993;SDS011;2011;48.238;13.948;2023-04-03T06:03:32;5.67;;;3.57;;
3993;SDS011;2011;48.238;13.948;2023-04-03T06:06:01;5.50;;;3.40;;
3993;SDS011;2011;48.238;13.948;2023-04-03T06:08:31;6.07;;;3.77;;
3993;SDS011;2011;48.238;13.948;2023-04-03T06:10:58;5.70;;;3.33;;
3993;SDS011;2011;48.238;13.948;2023-04-03T06:13:27;7.30;;;3.83;;
3993;SDS011;2011;48.238;13.948;2023-04-03T06:15:54;5.80;;;3.37;;
3993;SDS011;2011;48.238;13.948;2023-04-03T06:18:21;7.10;;;3.90;;
3993;SDS011;2011;48.238;13.948;2023-04-03T06:20:48;6.43;;;3.87;;
3993;SDS011;2011;48.238;13.948;2023-04-03T06:23:15;6.10;;;3.43;;
3993;SDS011;2011;48.238;13.948;2023-04-03T06:25:43;5.70;;;3.37;;
3993;SDS011;2011;48.238;13.948;2023-04-03T06:28:11;5.07;;;3.23;;
3993;SDS011;2011;48.238;13.948;2023-04-03T06:30:38;7.17;;;3.87;;
3993;SDS011;2011;48.238;13.948;2023-04-03T06:33:05;4.90;;;3.27;;
3993;SDS011;2011;48.238;13.948;2023-04-03T06:35:31;6.80;;;3.43;;
3993;SDS011;2011;48.238;13.948;2023-04-03T06:38:00;8.90;;;3.80;;
3993;SDS011;2011;48.238;13.948;2023-04-03T06:40:26;7.50;;;4.03;;
3993;SDS011;2011;48.238;13.948;2023-04-03T06:42:55;5.43;;;3.03;;
3993;SDS011;2011;48.238;13.948;2023-04-03T06:45:22;5.17;;;3.00;;
3993;SDS011;2011;48.238;13.948;2023-04-03T06:47:50;4.27;;;2.60;;
3993;SDS011;2011;48.238;13.948;2023-04-03T06:50:17;4.57;;;2.90;;
3993;SDS011;2011;48.238;13.948;2023-04-03T06:52:44;4.60;;;3.07;;
3993;SDS011;2011;48.238;13.948;2023-04-03T06:55:11;7.20;;;3.20;;
3993;SDS011;2011;48.238;13.948;2023-04-03T06:57:38;9.33;;;2.87;;
3993;SDS011;2011;48.238;13.948;2023-04-03T07:00:07;3.90;;;2.80;;
3993;SDS011;2011;48.238;13.948;2023-04-03T07:02:35;5.93;;;2.87;;
3993;SDS011;2011;48.238;13.948;2023-04-03T07:05:02;5.10;;;2.30;;
3993;SDS011;2011;48.238;13.948;2023-04-03T07:07:30;7.70;;;2.77;;
3993;SDS011;2011;48.238;13.948;2023-04-03T07:09:59;2.77;;;2.17;;
3993;SDS011;2011;48.238;13.948;2023-04-03T07:12:25;4.50;;;2.73;;
3993;SDS011;2011;48.238;13.948;2023-04-03T07:14:52;4.27;;;2.30;;
3993;SDS011;2011;48.238;13.948;2023-04-03T07:17:21;4.30;;;3.00;;
3993;SDS011;2011;48.238;13.948;2023-04-03T07:19:48;5.17;;;2.40;;
3993;SDS011;2011;48.238;13.948;2023-04-03T07:22:15;4.20;;;2.40;;
3993;SDS011;2011;48.238;13.948;2023-04-03T07:24:41;7.73;;;2.70;;
3993;SDS011;2011;48.238;13.948;2023-04-03T07:27:08;3.23;;;2.10;;
3993;SDS011;2011;48.238;13.948;2023-04-03T07:29:37;2.80;;;2.20;;
3993;SDS011;2011;48.238;13.948;2023-04-03T07:32:05;3.03;;;2.07;;
3993;SDS011;2011;48.238;13.948;2023-04-03T07:34:34;3.50;;;2.33;;
3993;SDS011;2011;48.238;13.948;2023-04-03T07:37:02;5.53;;;3.00;;
3993;SDS011;2011;48.238;13.948;2023-04-03T07:39:29;5.40;;;3.30;;
3993;SDS011;2011;48.238;13.948;2023-04-03T07:41:56;4.90;;;2.87;;
3993;SDS011;2011;48.238;13.948;2023-04-03T07:44:23;8.83;;;3.57;;
3993;SDS011;2011;48.238;13.948;2023-04-03T07:46:54;4.47;;;2.87;;
3993;SDS011;2011;48.238;13.948;2023-04-03T07:49:21;7.20;;;2.90;;
3993;SDS011;2011;48.238;13.948;2023-04-03T07:51:50;7.37;;;2.93;;
3993;SDS011;2011;48.238;13.948;2023-04-03T07:54:18;8.20;;;3.73;;
3993;SDS011;2011;48.238;13.948;2023-04-03T07:56:45;5.07;;;3.30;;
3993;SDS011;2011;48.238;13.948;2023-04-03T07:59:11;8.80;;;3.97;;
3993;SDS011;2011;48.238;13.948;2023-04-03T08:01:38;4.90;;;3.20;;
3993;SDS011;2011;48.238;13.948;2023-04-03T08:04:05;4.77;;;2.70;;
3993;SDS011;2011;48.238;13.948;2023-04-03T08:06:32;3.27;;;2.43;;
3993;SDS011;2011;48.238;13.948;2023-04-03T08:09:04;5.27;;;2.57;;
3993;SDS011;2011;48.238;13.948;2023-04-03T08:11:31;5.73;;;3.23;;
3993;SDS011;2011;48.238;13.948;2023-04-03T08:13:58;11.17;;;3.50;;
3993;SDS011;2011;48.238;13.948;2023-04-03T08:16:25;7.33;;;3.30;;
3993;SDS011;2011;48.238;13.948;2023-04-03T08:18:53;7.50;;;3.50;;
3993;SDS011;2011;48.238;13.948;2023-04-03T08:21:20;5.53;;;2.97;;
3993;SDS011;2011;48.238;13.948;2023-04-03T08:23:48;9.90;;;3.50;;
3993;SDS011;2011;48.238;13.948;2023-04-03T08:26:18;5.10;;;2.93;;
3993;SDS011;2011;48.238;13.948;2023-04-03T08:28:47;4.70;;;3.43;;
3993;SDS011;2011;48.238;13.948;2023-04-03T08:31:15;11.30;;;3.77;;
3993;SDS011;2011;48.238;13.948;2023-04-03T08:33:44;6.63;;;3.90;;
3993;SDS011;2011;48.238;13.948;2023-04-03T08:36:16;6.10;;;3.70;;
3993;SDS011;2011;48.238;13.948;2023-04-03T08:38:45;6.53;;;3.33;;
3993;SDS011;2011;48.238;13.948;2023-04-03T08:41:14;6.90;;;3.40;;
3993;SDS011;2011;48.238;13.948;2023-04-03T08:43:52;4.77;;;3.43;;
3993;SDS011;2011;48.238;13.948;2023-04-03T08:46:24;6.73;;;3.50;;
3993;SDS011;2011;48.238;13.948;2023-04-03T08:48:58;7.30;;;3.50;;
3993;SDS011;2011;48.238;13.948;2023-04-03T08:51:25;8.47;;;3.90;;
3993;SDS011;2011;48.238;13.948;2023-04-03T08:53:54;9.43;;;4.00;;
3993;SDS011;2011;48.238;13.948;2023-04-03T08:56:24;12.53;;;3.47;;
3993;SDS011;2011;48.238;13.948;2023-04-03T08:58:55;5.53;;;3.50;;
3993;SDS011;2011;48.238;13.948;2023-04-03T09:01:24;10.27;;;4.47;;
3993;SDS011;2011;48.238;13.948;2023-04-03T09:03:56;7.00;;;3.53;;
3993;SDS011;2011;48.238;13.948;2023-04-03T09:06:23;5.90;;;3.77;;
3993;SDS011;2011;48.238;13.948;2023-04-03T09:08:56;6.87;;;3.80;;
3993;SDS011;2011;48.238;13.948;2023-04-03T09:11:35;7.00;;;3.90;;
3993;SDS011;2011;48.238;13.948;2023-04-03T09:14:13;9.03;;;3.97;;
3993;SDS011;2011;48.238;13.948;2023-04-03T09:16:47;6.47;;;3.40;;
3993;SDS011;2011;48.238;13.948;2023-04-03T09:19:20;7.90;;;3.60;;
3993;SDS011;2011;48.238;13.948;2023-04-03T09:21:55;7.63;;;3.80;;
3993;SDS011;2011;48.238;13.948;2023-04-03T09:24:23;5.83;;;3.60;;
3993;SDS011;2011;48.238;13.948;2023-04-03T09:26:51;5.40;;;3.67;;
3993;SDS011;2011;48.238;13.948;2023-04-03T09:29:22;5.97;;;3.50;;
3993;SDS011;2011;48.238;13.948;2023-04-03T09:31:52;8.07;;;3.90;;
3993;SDS011;2011;48.238;13.948;2023-04-03T09:34:23;3.20;;;2.00;;
3993;SDS011;2011;48.238;13.948;2023-04-03T09:36:52;6.00;;;2.73;;
3993;SDS011;2011;48.238;13.948;2023-04-03T09:39:22;5.00;;;2.00;;
3993;SDS011;2011;48.238;13.948;2023-04-03T09:41:55;5.23;;;2.70;;
3993;SDS011;2011;48.238;13.948;2023-04-03T09:44:25;3.50;;;1.97;;
3993;SDS011;2011;48.238;13.948;2023-04-03T09:46:53;3.87;;;2.40;;
3993;SDS011;2011;48.238;13.948;2023-04-03T09:49:20;8.43;;;2.00;;
3993;SDS011;2011;48.238;13.948;2023-04-03T09:51:47;3.33;;;1.90;;
3993;SDS011;2011;48.238;13.948;2023-04-03T09:54:31;3.00;;;1.60;;
3993;SDS011;2011;48.238;13.948;2023-04-03T09:57:04;4.93;;;2.10;;
3993;SDS011;2011;48.238;13.948;2023-04-03T09:59:43;5.53;;;2.00;;
3993;SDS011;2011;48.238;13.948;2023-04-03T10:02:21;3.37;;;1.57;;
3993;SDS011;2011;48.238;13.948;2023-04-03T10:04:58;2.63;;;1.67;;
3993;SDS011;2011;48.238;13.948;2023-04-03T10:07:26;2.57;;;1.50;;
3993;SDS011;2011;48.238;13.948;2023-04-03T10:09:58;3.30;;;1.73;;
3993;SDS011;2011;48.238;13.948;2023-04-03T10:12:26;3.80;;;2.10;;
3993;SDS011;2011;48.238;13.948;2023-04-03T10:14:55;2.87;;;1.80;;
3993;SDS011;2011;48.238;13.948;2023-04-03T10:17:32;3.60;;;1.87;;
3993;SDS011;2011;48.238;13.948;2023-04-03T10:20:10;3.10;;;1.80;;
3993;SDS011;2011;48.238;13.948;2023-04-03T10:22:52;3.90;;;2.17;;
3993;SDS011;2011;48.238;13.948;2023-04-03T10:25:27;2.53;;;1.40;;
3993;SDS011;2011;48.238;13.948;2023-04-03T10:28:00;2.47;;;1.60;;
3993;SDS011;2011;48.238;13.948;2023-04-03T10:30:36;4.90;;;2.10;;
3993;SDS011;2011;48.238;13.948;2023-04-03T10:33:18;5.57;;;2.10;;
3993;SDS011;2011;48.238;13.948;2023-04-03T10:36:01;4.10;;;1.60;;
3993;SDS011;2011;48.238;13.948;2023-04-03T10:38:39;4.50;;;2.00;;
3993;SDS011;2011;48.238;13.948;2023-04-03T10:41:16;2.77;;;1.67;;
3993;SDS011;2011;48.238;13.948;2023-04-03T10:43:50;3.03;;;1.90;;
3993;SDS011;2011;48.238;13.948;2023-04-03T10:46:25;7.33;;;1.60;;
3993;SDS011;2011;48.238;13.948;2023-04-03T10:49:07;2.97;;;1.57;;
3993;SDS011;2011;48.238;13.948;2023-04-03T10:51:43;2.80;;;1.40;;
3993;SDS011;2011;48.238;13.948;2023-04-03T10:54:15;3.00;;;1.80;;
3993;SDS011;2011;48.238;13.948;2023-04-03T10:56:50;3.90;;;2.20;;
3993;SDS011;2011;48.238;13.948;2023-04-03T10:59:21;10.63;;;2.27;;
3993;SDS011;2011;48.238;13.948;2023-04-03T11:01:55;4.20;;;1.90;;
3993;SDS011;2011;48.238;13.948;2023-04-03T11:04:24;4.37;;;1.80;;
3993;SDS011;2011;48.238;13.948;2023-04-03T11:06:57;5.03;;;1.93;;
3993;SDS011;2011;48.238;13.948;2023-04-03T11:09:27;3.10;;;1.77;;
3993;SDS011;2011;48.238;13.948;2023-04-03T11:12:04;4.60;;;1.80;;
3993;SDS011;2011;48.238;13.948;2023-04-03T11:14:43;3.30;;;1.77;;
3993;SDS011;2011;48.238;13.948;2023-04-03T11:17:18;3.43;;;1.93;;
3993;SDS011;2011;48.238;13.948;2023-04-03T11:19:51;3.37;;;1.60;;
3993;SDS011;2011;48.238;13.948;2023-04-03T11:22:26;3.73;;;1.93;;
3993;SDS011;2011;48.238;13.948;2023-04-03T11:24:58;4.33;;;1.90;;
3993;SDS011;2011;48.238;13.948;2023-04-03T11:27:30;3.33;;;1.90;;
3993;SDS011;2011;48.238;13.948;2023-04-03T11:30:05;3.67;;;2.20;;
3993;SDS011;2011;48.238;13.948;2023-04-03T11:32:51;7.63;;;2.00;;
3993;SDS011;2011;48.238;13.948;2023-04-03T11:35:34;3.50;;;2.03;;
3993;SDS011;2011;48.238;13.948;2023-04-03T11:38:02;13.43;;;1.97;;
3993;SDS011;2011;48.238;13.948;2023-04-03T11:40:32;3.40;;;1.60;;
3993;SDS011;2011;48.238;13.948;2023-04-03T11:43:04;5.87;;;2.10;;
3993;SDS011;2011;48.238;13.948;2023-04-03T11:45:50;5.00;;;2.33;;
3993;SDS011;2011;48.238;13.948;2023-04-03T12:03:07;6.13;;;2.63;;
3993;SDS011;2011;48.238;13.948;2023-04-03T12:12:31;4.77;;;2.30;;
3993;SDS011;2011;48.238;13.948;2023-04-03T12:18:32;4.63;;;1.97;;
3993;SDS011;2011;48.238;13.948;2023-04-03T12:21:08;3.63;;;2.23;;
3993;SDS011;2011;48.238;13.948;2023-04-03T12:23:36;5.63;;;1.90;;
3993;SDS011;2011;48.238;13.948;2023-04-03T12:26:22;4.20;;;2.23;;
3993;SDS011;2011;48.238;13.948;2023-04-03T12:28:53;4.37;;;2.27;;
3993;SDS011;2011;48.238;13.948;2023-04-03T12:31:22;5.10;;;2.80;;
3993;SDS011;2011;48.238;13.948;2023-04-03T12:34:07;3.90;;;1.90;;
3993;SDS011;2011;48.238;13.948;2023-04-03T12:36:47;6.87;;;2.50;;
3993;SDS011;2011;48.238;13.948;2023-04-03T12:39:26;7.63;;;2.03;;
3993;SDS011;2011;48.238;13.948;2023-04-03T12:42:18;5.80;;;2.37;;
3993;SDS011;2011;48.238;13.948;2023-04-03T12:44:58;2.50;;;1.50;;
3993;SDS011;2011;48.238;13.948;2023-04-03T12:47:29;3.47;;;2.07;;
3993;SDS011;2011;48.238;13.948;2023-04-03T12:50:01;4.20;;;2.20;;
3993;SDS011;2011;48.238;13.948;2023-04-03T12:52:33;4.40;;;1.80;;
3993;SDS011;2011;48.238;13.948;2023-04-03T12:55:07;4.93;;;2.30;;
3993;SDS011;2011;48.238;13.948;2023-04-03T12:57:40;3.80;;;1.90;;
3993;SDS011;2011;48.238;13.948;2023-04-03T13:00:29;3.57;;;2.10;;
3993;SDS011;2011;48.238;13.948;2023-04-03T13:02:59;6.60;;;2.20;;
3993;SDS011;2011;48.238;13.948;2023-04-03T13:05:27;4.67;;;2.20;;
3993;SDS011;2011;48.238;13.948;2023-04-03T13:07:58;4.47;;;2.97;;
3993;SDS011;2011;48.238;13.948;2023-04-03T13:10:28;3.83;;;2.10;;
3993;SDS011;2011;48.238;13.948;2023-04-03T13:12:56;3.63;;;2.17;;
3993;SDS011;2011;48.238;13.948;2023-04-03T13:15:25;3.73;;;1.90;;
3993;SDS011;2011;48.238;13.948;2023-04-03T13:17:55;5.07;;;2.27;;
3993;SDS011;2011;48.238;13.948;2023-04-03T13:20:23;4.27;;;2.27;;
3993;SDS011;2011;48.238;13.948;2023-04-03T13:22:53;3.50;;;2.20;;
3993;SDS011;2011;48.238;13.948;2023-04-03T13:25:23;3.20;;;2.10;;
3993;SDS011;2011;48.238;13.948;2023-04-03T13:27:53;3.60;;;2.10;;
3993;SDS011;2011;48.238;13.948;2023-04-03T13:30:24;5.67;;;1.93;;
3993;SDS011;2011;48.238;13.948;2023-04-03T13:32:55;4.10;;;2.00;;
3993;SDS011;2011;48.238;13.948;2023-04-03T13:35:31;4.53;;;2.00;;
3993;SDS011;2011;48.238;13.948;2023-04-03T13:38:01;4.57;;;2.23;;
3993;SDS011;2011;48.238;13.948;2023-04-03T13:40:31;3.53;;;2.07;;
3993;SDS011;2011;48.238;13.948;2023-04-03T13:42:59;3.90;;;2.13;;
3993;SDS011;2011;48.238;13.948;2023-04-03T13:45:29;6.80;;;2.33;;
3993;SDS011;2011;48.238;13.948;2023-04-03T13:48:09;5.03;;;2.60;;
3993;SDS011;2011;48.238;13.948;2023-04-03T13:50:50;5.37;;;2.20;;
3993;SDS011;2011;48.238;13.948;2023-04-03T13:53:25;3.27;;;1.80;;
3993;SDS011;2011;48.238;13.948;2023-04-03T13:55:56;4.57;;;2.10;;
3993;SDS011;2011;48.238;13.948;2023-04-03T13:58:26;2.80;;;1.90;;
3993;SDS011;2011;48.238;13.948;2023-04-03T14:00:55;3.47;;;2.30;;
3993;SDS011;2011;48.238;13.948;2023-04-03T14:03:30;6.30;;;2.30;;
3993;SDS011;2011;48.238;13.948;2023-04-03T14:05:59;4.70;;;2.07;;
3993;SDS011;2011;48.238;13.948;2023-04-03T14:08:29;3.73;;;2.30;;
3993;SDS011;2011;48.238;13.948;2023-04-03T14:10:56;6.43;;;2.20;;
3993;SDS011;2011;48.238;13.948;2023-04-03T14:13:23;4.03;;;2.00;;
3993;SDS011;2011;48.238;13.948;2023-04-03T14:15:50;3.70;;;1.80;;
3993;SDS011;2011;48.238;13.948;2023-04-03T14:18:18;3.87;;;1.90;;
3993;SDS011;2011;48.238;13.948;2023-04-03T14:20:47;2.67;;;1.63;;
3993;SDS011;2011;48.238;13.948;2023-04-03T14:23:15;6.60;;;2.20;;
3993;SDS011;2011;48.238;13.948;2023-04-03T14:25:42;6.07;;;1.90;;
3993;SDS011;2011;48.238;13.948;2023-04-03T14:28:14;2.63;;;1.70;;
3993;SDS011;2011;48.238;13.948;2023-04-03T14:30:42;3.70;;;1.77;;
3993;SDS011;2011;48.238;13.948;2023-04-03T14:33:12;3.70;;;2.03;;
3993;SDS011;2011;48.238;13.948;2023-04-03T14:35:41;4.07;;;2.30;;
3993;SDS011;2011;48.238;13.948;2023-04-03T14:40:49;3.00;;;2.17;;
3993;SDS011;2011;48.238;13.948;2023-04-03T14:43:16;4.33;;;2.17;;
3993;SDS011;2011;48.238;13.948;2023-04-03T14:45:45;7.83;;;2.47;;
3993;SDS011;2011;48.238;13.948;2023-04-03T14:48:14;4.10;;;2.23;;
3993;SDS011;2011;48.238;13.948;2023-04-03T14:50:44;4.87;;;2.20;;
3993;SDS011;2011;48.238;13.948;2023-04-03T14:53:12;3.10;;;1.93;;
3993;SDS011;2011;48.238;13.948;2023-04-03T14:55:41;4.00;;;2.20;;
3993;SDS011;2011;48.238;13.948;2023-04-03T14:58:12;6.83;;;3.27;;
3993;SDS011;2011;48.238;13.948;2023-04-03T15:00:41;6.30;;;2.47;;
3993;SDS011;2011;48.238;13.948;2023-04-03T15:03:11;4.30;;;2.27;;
3993;SDS011;2011;48.238;13.948;2023-04-03T15:05:40;4.30;;;2.50;;
3993;SDS011;2011;48.238;13.948;2023-04-03T15:08:08;6.37;;;2.87;;
3993;SDS011;2011;48.238;13.948;2023-04-03T15:10:45;4.37;;;2.30;;
3993;SDS011;2011;48.238;13.948;2023-04-03T15:13:12;4.53;;;2.67;;
3993;SDS011;2011;48.238;13.948;2023-04-03T15:15:39;6.47;;;3.03;;
3993;SDS011;2011;48.238;13.948;2023-04-03T15:18:09;4.87;;;2.70;;
3993;SDS011;2011;48.238;13.948;2023-04-03T15:20:41;4.30;;;2.37;;
3993;SDS011;2011;48.238;13.948;2023-04-03T15:23:08;4.10;;;2.10;;
3993;SDS011;2011;48.238;13.948;2023-04-03T15:25:37;5.27;;;2.80;;
3993;SDS011;2011;48.238;13.948;2023-04-03T15:28:08;4.50;;;2.60;;
3993;SDS011;2011;48.238;13.948;2023-04-03T15:30:37;4.80;;;2.90;;
3993;SDS011;2011;48.238;13.948;2023-04-03T15:33:06;4.23;;;2.50;;
3993;SDS011;2011;48.238;13.948;2023-04-03T15:35:33;5.20;;;2.53;;
3993;SDS011;2011;48.238;13.948;2023-04-03T15:38:00;4.50;;;1.97;;
3993;SDS011;2011;48.238;13.948;2023-04-03T15:40:27;3.40;;;2.30;;
3993;SDS011;2011;48.238;13.948;2023-04-03T15:42:54;6.00;;;2.60;;
3993;SDS011;2011;48.238;13.948;2023-04-03T15:45:22;3.43;;;2.40;;